sensor_id;sensor_type;location;lat;lon;timestamp;temperature;humidity
4993;DHT22;2514;53.524;10.166;2022-09-09T00:01:23;13.50;99.90
4993;DHT22;2514;53.524;10.166;2022-09-09T00:03:59;13.50;99.90
4993;DHT22;2514;53.524;10.166;2022-09-09T00:06:31;13.40;99.90
4993;DHT22;2514;53.524;10.166;2022-09-09T00:09:04;13.40;99.90
4993;DHT22;2514;53.524;10.166;2022-09-09T00:11:41;13.40;99.90
4993;DHT22;2514;53.524;10.166;2022-09-09T00:14:16;13.40;99.90
4993;DHT22;2514;53.524;10.166;2022-09-09T00:16:55;13.40;99.90
4993;DHT22;2514;53.524;10.166;2022-09-09T00:19:26;13.30;99.90
4993;DHT22;2514;53.524;10.166;2022-09-09T00:22:05;13.30;99.90
4993;DHT22;2514;53.524;10.166;2022-09-09T00:24:44;13.40;99.90
4993;DHT22;2514;53.524;10.166;2022-09-09T00:27:19;13.40;99.90
4993;DHT22;2514;53.524;10.166;2022-09-09T00:29:54;13.30;99.90
4993;DHT22;2514;53.524;10.166;2022-09-09T00:32:28;13.30;99.90
4993;DHT22;2514;53.524;10.166;2022-09-09T00:35:01;13.30;99.90
4993;DHT22;2514;53.524;10.166;2022-09-09T00:37:31;13.40;99.90
4993;DHT22;2514;53.524;10.166;2022-09-09T00:40:05;13.30;99.90
4993;DHT22;2514;53.524;10.166;2022-09-09T00:42:43;13.30;99.90
4993;DHT22;2514;53.524;10.166;2022-09-09T00:45:24;13.40;99.90
4993;DHT22;2514;53.524;10.166;2022-09-09T00:48:10;13.40;99.90
4993;DHT22;2514;53.524;10.166;2022-09-09T00:50:46;13.40;99.90
4993;DHT22;2514;53.524;10.166;2022-09-09T00:53:27;13.40;99.90
4993;DHT22;2514;53.524;10.166;2022-09-09T00:56:09;13.40;99.90
4993;DHT22;2514;53.524;10.166;2022-09-09T00:58:40;13.50;99.90
4993;DHT22;2514;53.524;10.166;2022-09-09T01:01:10;13.50;99.90
4993;DHT22;2514;53.524;10.166;2022-09-09T01:03:44;13.40;99.90
4993;DHT22;2514;53.524;10.166;2022-09-09T01:06:19;13.50;99.90
4993;DHT22;2514;53.524;10.166;2022-09-09T01:09:02;13.60;99.90
4993;DHT22;2514;53.524;10.166;2022-09-09T01:11:43;13.70;99.90
4993;DHT22;2514;53.524;10.166;2022-09-09T01:14:24;13.60;99.90
4993;DHT22;2514;53.524;10.166;2022-09-09T01:17:01;13.60;99.90
4993;DHT22;2514;53.524;10.166;2022-09-09T01:22:33;13.60;99.90
4993;DHT22;2514;53.524;10.166;2022-09-09T01:25:28;13.60;99.90
4993;DHT22;2514;53.524;10.166;2022-09-09T01:27:59;13.60;99.90
4993;DHT22;2514;53.524;10.166;2022-09-09T01:30:28;13.50;99.90
4993;DHT22;2514;53.524;10.166;2022-09-09T01:32:57;13.50;99.90
4993;DHT22;2514;53.524;10.166;2022-09-09T01:35:39;13.50;99.90
4993;DHT22;2514;53.524;10.166;2022-09-09T01:38:09;13.50;99.90
4993;DHT22;2514;53.524;10.166;2022-09-09T01:40:37;13.50;99.90
4993;DHT22;2514;53.524;10.166;2022-09-09T01:43:06;13.50;99.90
4993;DHT22;2514;53.524;10.166;2022-09-09T01:45:33;13.40;99.90
4993;DHT22;2514;53.524;10.166;2022-09-09T01:48:01;13.40;99.90
4993;DHT22;2514;53.524;10.166;2022-09-09T01:50:29;13.40;99.90
4993;DHT22;2514;53.524;10.166;2022-09-09T01:52:57;13.40;99.90
4993;DHT22;2514;53.524;10.166;2022-09-09T01:55:30;13.40;99.90
4993;DHT22;2514;53.524;10.166;2022-09-09T01:58:15;13.40;99.90
4993;DHT22;2514;53.524;10.166;2022-09-09T02:00:54;13.30;99.90
4993;DHT22;2514;53.524;10.166;2022-09-09T02:03:26;13.30;99.90
4993;DHT22;2514;53.524;10.166;2022-09-09T02:06:03;13.30;99.90
4993;DHT22;2514;53.524;10.166;2022-09-09T02:08:39;13.40;99.90
4993;DHT22;2514;53.524;10.166;2022-09-09T02:11:13;13.30;99.90
4993;DHT22;2514;53.524;10.166;2022-09-09T02:13:44;13.30;99.90
4993;DHT22;2514;53.524;10.166;2022-09-09T02:16:14;13.30;99.90
4993;DHT22;2514;53.524;10.166;2022-09-09T02:18:48;13.20;99.90
4993;DHT22;2514;53.524;10.166;2022-09-09T02:21:18;13.20;99.90
4993;DHT22;2514;53.524;10.166;2022-09-09T02:23:47;13.30;99.90
4993;DHT22;2514;53.524;10.166;2022-09-09T02:26:19;13.20;99.90
4993;DHT22;2514;53.524;10.166;2022-09-09T02:28:51;13.20;99.90
4993;DHT22;2514;53.524;10.166;2022-09-09T02:31:22;13.20;99.90
4993;DHT22;2514;53.524;10.166;2022-09-09T02:33:53;13.10;99.90
4993;DHT22;2514;53.524;10.166;2022-09-09T02:36:23;13.10;99.90
4993;DHT22;2514;53.524;10.166;2022-09-09T02:38:52;13.10;99.90
4993;DHT22;2514;53.524;10.166;2022-09-09T02:41:21;13.10;99.90
4993;DHT22;2514;53.524;10.166;2022-09-09T02:43:52;13.00;99.90
4993;DHT22;2514;53.524;10.166;2022-09-09T02:46:36;13.00;99.90
4993;DHT22;2514;53.524;10.166;2022-09-09T02:49:10;13.00;99.90
4993;DHT22;2514;53.524;10.166;2022-09-09T02:51:48;13.00;99.90
4993;DHT22;2514;53.524;10.166;2022-09-09T02:54:26;13.00;99.90
4993;DHT22;2514;53.524;10.166;2022-09-09T02:57:00;13.00;99.90
4993;DHT22;2514;53.524;10.166;2022-09-09T02:59:30;12.90;99.90
4993;DHT22;2514;53.524;10.166;2022-09-09T03:01:58;12.90;99.90
4993;DHT22;2514;53.524;10.166;2022-09-09T03:04:25;12.90;99.90
4993;DHT22;2514;53.524;10.166;2022-09-09T03:06:52;12.90;99.90
4993;DHT22;2514;53.524;10.166;2022-09-09T03:09:19;12.90;99.90
4993;DHT22;2514;53.524;10.166;2022-09-09T03:11:45;12.90;99.90
4993;DHT22;2514;53.524;10.166;2022-09-09T03:14:12;12.90;99.90
4993;DHT22;2514;53.524;10.166;2022-09-09T03:16:41;12.90;99.90
4993;DHT22;2514;53.524;10.166;2022-09-09T03:19:08;12.80;99.90
4993;DHT22;2514;53.524;10.166;2022-09-09T03:21:35;12.80;99.90
4993;DHT22;2514;53.524;10.166;2022-09-09T03:24:02;12.80;99.90
4993;DHT22;2514;53.524;10.166;2022-09-09T03:26:29;12.70;99.90
4993;DHT22;2514;53.524;10.166;2022-09-09T03:28:57;12.70;99.90
4993;DHT22;2514;53.524;10.166;2022-09-09T03:31:26;12.70;99.90
4993;DHT22;2514;53.524;10.166;2022-09-09T03:33:56;12.70;99.90
4993;DHT22;2514;53.524;10.166;2022-09-09T03:36:24;12.70;99.90
4993;DHT22;2514;53.524;10.166;2022-09-09T03:38:53;12.70;99.90
4993;DHT22;2514;53.524;10.166;2022-09-09T03:41:21;12.70;99.90
4993;DHT22;2514;53.524;10.166;2022-09-09T03:43:49;12.60;99.90
4993;DHT22;2514;53.524;10.166;2022-09-09T03:46:16;12.60;99.90
4993;DHT22;2514;53.524;10.166;2022-09-09T03:48:43;12.60;99.90
4993;DHT22;2514;53.524;10.166;2022-09-09T03:51:12;12.60;99.90
4993;DHT22;2514;53.524;10.166;2022-09-09T03:53:39;12.60;99.90
4993;DHT22;2514;53.524;10.166;2022-09-09T03:56:07;12.60;99.90
4993;DHT22;2514;53.524;10.166;2022-09-09T03:58:36;12.60;99.90
4993;DHT22;2514;53.524;10.166;2022-09-09T04:01:04;12.60;99.90
4993;DHT22;2514;53.524;10.166;2022-09-09T04:03:34;12.60;99.90
4993;DHT22;2514;53.524;10.166;2022-09-09T04:06:02;12.60;99.90
4993;DHT22;2514;53.524;10.166;2022-09-09T04:08:31;12.50;99.90
4993;DHT22;2514;53.524;10.166;2022-09-09T04:10:59;12.50;99.90
4993;DHT22;2514;53.524;10.166;2022-09-09T04:13:31;12.50;99.90
4993;DHT22;2514;53.524;10.166;2022-09-09T04:16:00;12.50;99.90
4993;DHT22;2514;53.524;10.166;2022-09-09T04:18:29;12.50;99.90
4993;DHT22;2514;53.524;10.166;2022-09-09T04:20:57;12.50;99.90
4993;DHT22;2514;53.524;10.166;2022-09-09T04:23:25;12.50;99.90
4993;DHT22;2514;53.524;10.166;2022-09-09T04:25:56;12.40;99.90
4993;DHT22;2514;53.524;10.166;2022-09-09T04:28:26;12.40;99.90
4993;DHT22;2514;53.524;10.166;2022-09-09T04:30:54;12.50;99.90
4993;DHT22;2514;53.524;10.166;2022-09-09T04:33:23;12.50;99.90
4993;DHT22;2514;53.524;10.166;2022-09-09T04:35:52;12.50;99.90
4993;DHT22;2514;53.524;10.166;2022-09-09T04:38:21;12.50;99.90
4993;DHT22;2514;53.524;10.166;2022-09-09T04:40:50;12.50;99.90
4993;DHT22;2514;53.524;10.166;2022-09-09T04:43:20;12.60;99.90
4993;DHT22;2514;53.524;10.166;2022-09-09T04:45:49;12.60;99.90
4993;DHT22;2514;53.524;10.166;2022-09-09T04:48:17;12.70;99.90
4993;DHT22;2514;53.524;10.166;2022-09-09T04:50:53;12.70;99.90
4993;DHT22;2514;53.524;10.166;2022-09-09T04:53:22;12.70;99.90
4993;DHT22;2514;53.524;10.166;2022-09-09T04:55:50;12.70;99.90
4993;DHT22;2514;53.524;10.166;2022-09-09T04:58:18;12.70;99.90
4993;DHT22;2514;53.524;10.166;2022-09-09T05:00:48;12.80;99.90
4993;DHT22;2514;53.524;10.166;2022-09-09T05:03:16;12.70;99.90
4993;DHT22;2514;53.524;10.166;2022-09-09T05:05:43;12.70;99.90
4993;DHT22;2514;53.524;10.166;2022-09-09T05:08:10;12.80;99.90
4993;DHT22;2514;53.524;10.166;2022-09-09T05:10:38;12.70;99.90
4993;DHT22;2514;53.524;10.166;2022-09-09T05:13:07;12.70;99.90
4993;DHT22;2514;53.524;10.166;2022-09-09T05:15:36;12.70;99.90
4993;DHT22;2514;53.524;10.166;2022-09-09T05:18:03;12.70;99.90
4993;DHT22;2514;53.524;10.166;2022-09-09T05:20:30;12.60;99.90
4993;DHT22;2514;53.524;10.166;2022-09-09T05:22:57;12.70;99.90
4993;DHT22;2514;53.524;10.166;2022-09-09T05:25:24;12.70;99.90
4993;DHT22;2514;53.524;10.166;2022-09-09T05:27:52;12.70;99.90
4993;DHT22;2514;53.524;10.166;2022-09-09T05:30:20;12.80;99.90
4993;DHT22;2514;53.524;10.166;2022-09-09T05:32:49;12.80;99.90
4993;DHT22;2514;53.524;10.166;2022-09-09T05:35:16;12.80;99.90
4993;DHT22;2514;53.524;10.166;2022-09-09T05:37:44;12.80;99.90
4993;DHT22;2514;53.524;10.166;2022-09-09T05:40:12;12.90;99.90
4993;DHT22;2514;53.524;10.166;2022-09-09T05:42:39;13.00;99.90
4993;DHT22;2514;53.524;10.166;2022-09-09T05:45:06;13.00;99.90
4993;DHT22;2514;53.524;10.166;2022-09-09T05:47:34;13.00;99.90
4993;DHT22;2514;53.524;10.166;2022-09-09T05:50:04;13.00;99.90
4993;DHT22;2514;53.524;10.166;2022-09-09T05:52:32;13.00;99.90
4993;DHT22;2514;53.524;10.166;2022-09-09T05:54:59;13.10;99.90
4993;DHT22;2514;53.524;10.166;2022-09-09T05:57:26;13.10;99.90
4993;DHT22;2514;53.524;10.166;2022-09-09T06:00:18;13.10;99.90
4993;DHT22;2514;53.524;10.166;2022-09-09T06:02:50;13.10;99.90
4993;DHT22;2514;53.524;10.166;2022-09-09T06:05:20;13.20;99.90
4993;DHT22;2514;53.524;10.166;2022-09-09T06:07:48;13.20;99.90
4993;DHT22;2514;53.524;10.166;2022-09-09T06:10:18;13.20;99.90
4993;DHT22;2514;53.524;10.166;2022-09-09T06:12:45;13.30;99.90
4993;DHT22;2514;53.524;10.166;2022-09-09T06:15:15;13.40;99.90
4993;DHT22;2514;53.524;10.166;2022-09-09T06:17:42;13.40;99.90
4993;DHT22;2514;53.524;10.166;2022-09-09T06:20:11;13.40;99.90
4993;DHT22;2514;53.524;10.166;2022-09-09T06:22:40;13.50;99.90
4993;DHT22;2514;53.524;10.166;2022-09-09T06:25:08;13.60;99.90
4993;DHT22;2514;53.524;10.166;2022-09-09T06:27:36;13.60;99.90
4993;DHT22;2514;53.524;10.166;2022-09-09T06:30:04;13.60;99.90
4993;DHT22;2514;53.524;10.166;2022-09-09T06:32:31;13.60;99.90
4993;DHT22;2514;53.524;10.166;2022-09-09T06:35:02;13.60;99.90
4993;DHT22;2514;53.524;10.166;2022-09-09T06:37:29;13.60;99.90
4993;DHT22;2514;53.524;10.166;2022-09-09T06:39:57;13.60;99.90
4993;DHT22;2514;53.524;10.166;2022-09-09T06:42:24;13.70;99.90
4993;DHT22;2514;53.524;10.166;2022-09-09T06:44:55;13.70;99.90
4993;DHT22;2514;53.524;10.166;2022-09-09T06:47:22;13.80;99.90
4993;DHT22;2514;53.524;10.166;2022-09-09T06:49:50;13.80;99.90
4993;DHT22;2514;53.524;10.166;2022-09-09T06:52:17;14.00;99.90
4993;DHT22;2514;53.524;10.166;2022-09-09T06:54:44;14.00;99.90
4993;DHT22;2514;53.524;10.166;2022-09-09T06:57:12;14.10;99.90
4993;DHT22;2514;53.524;10.166;2022-09-09T06:59:39;14.10;99.90
4993;DHT22;2514;53.524;10.166;2022-09-09T07:02:08;14.20;99.90
4993;DHT22;2514;53.524;10.166;2022-09-09T07:04:35;14.30;99.90
4993;DHT22;2514;53.524;10.166;2022-09-09T07:07:02;14.40;99.90
4993;DHT22;2514;53.524;10.166;2022-09-09T07:09:29;14.40;99.90
4993;DHT22;2514;53.524;10.166;2022-09-09T07:11:57;14.50;99.90
4993;DHT22;2514;53.524;10.166;2022-09-09T07:14:26;14.60;99.90
4993;DHT22;2514;53.524;10.166;2022-09-09T07:16:53;14.70;99.90
4993;DHT22;2514;53.524;10.166;2022-09-09T07:19:20;14.80;99.90
4993;DHT22;2514;53.524;10.166;2022-09-09T07:21:47;15.00;99.90
4993;DHT22;2514;53.524;10.166;2022-09-09T07:24:14;15.00;99.90
4993;DHT22;2514;53.524;10.166;2022-09-09T07:26:42;15.10;99.90
4993;DHT22;2514;53.524;10.166;2022-09-09T07:29:10;15.20;99.90
4993;DHT22;2514;53.524;10.166;2022-09-09T07:31:41;15.30;99.90
4993;DHT22;2514;53.524;10.166;2022-09-09T07:34:08;15.30;99.90
4993;DHT22;2514;53.524;10.166;2022-09-09T07:36:37;15.30;99.90
4993;DHT22;2514;53.524;10.166;2022-09-09T07:39:07;15.40;99.90
4993;DHT22;2514;53.524;10.166;2022-09-09T07:41:37;15.50;99.90
4993;DHT22;2514;53.524;10.166;2022-09-09T07:44:06;15.70;99.90
4993;DHT22;2514;53.524;10.166;2022-09-09T07:46:34;15.90;99.90
4993;DHT22;2514;53.524;10.166;2022-09-09T07:49:03;15.90;99.90
4993;DHT22;2514;53.524;10.166;2022-09-09T07:51:32;16.10;99.90
4993;DHT22;2514;53.524;10.166;2022-09-09T07:54:01;16.10;99.90
4993;DHT22;2514;53.524;10.166;2022-09-09T07:56:30;16.40;99.90
4993;DHT22;2514;53.524;10.166;2022-09-09T07:58:58;16.50;99.90
4993;DHT22;2514;53.524;10.166;2022-09-09T08:01:35;16.60;99.90
4993;DHT22;2514;53.524;10.166;2022-09-09T08:04:07;16.80;99.90
4993;DHT22;2514;53.524;10.166;2022-09-09T08:06:37;16.80;99.90
4993;DHT22;2514;53.524;10.166;2022-09-09T08:09:08;16.70;99.90
4993;DHT22;2514;53.524;10.166;2022-09-09T08:11:36;16.50;99.90
4993;DHT22;2514;53.524;10.166;2022-09-09T08:14:03;16.50;99.90
4993;DHT22;2514;53.524;10.166;2022-09-09T08:16:32;16.70;99.90
4993;DHT22;2514;53.524;10.166;2022-09-09T08:19:02;16.70;99.90
4993;DHT22;2514;53.524;10.166;2022-09-09T08:21:32;16.70;99.90
4993;DHT22;2514;53.524;10.166;2022-09-09T08:24:01;16.90;99.90
4993;DHT22;2514;53.524;10.166;2022-09-09T08:26:31;17.00;99.90
4993;DHT22;2514;53.524;10.166;2022-09-09T08:29:01;17.00;99.90
4993;DHT22;2514;53.524;10.166;2022-09-09T08:31:31;16.90;99.90
4993;DHT22;2514;53.524;10.166;2022-09-09T08:34:00;17.00;99.90
4993;DHT22;2514;53.524;10.166;2022-09-09T08:36:33;17.10;99.90
4993;DHT22;2514;53.524;10.166;2022-09-09T08:39:03;17.30;99.90
4993;DHT22;2514;53.524;10.166;2022-09-09T08:44:41;17.10;99.90
4993;DHT22;2514;53.524;10.166;2022-09-09T08:47:34;17.00;99.90
4993;DHT22;2514;53.524;10.166;2022-09-09T08:50:16;17.00;99.90
4993;DHT22;2514;53.524;10.166;2022-09-09T08:52:53;17.10;99.90
4993;DHT22;2514;53.524;10.166;2022-09-09T08:55:27;17.40;99.90
4993;DHT22;2514;53.524;10.166;2022-09-09T08:58:04;17.90;99.90
4993;DHT22;2514;53.524;10.166;2022-09-09T09:00:44;18.30;99.90
4993;DHT22;2514;53.524;10.166;2022-09-09T09:03:28;18.70;99.90
4993;DHT22;2514;53.524;10.166;2022-09-09T09:06:06;18.90;99.90
4993;DHT22;2514;53.524;10.166;2022-09-09T09:08:45;18.70;99.90
4993;DHT22;2514;53.524;10.166;2022-09-09T09:11:17;18.70;99.90
4993;DHT22;2514;53.524;10.166;2022-09-09T09:13:48;18.70;99.90
4993;DHT22;2514;53.524;10.166;2022-09-09T09:16:23;18.70;99.90
4993;DHT22;2514;53.524;10.166;2022-09-09T09:18:54;19.10;99.90
4993;DHT22;2514;53.524;10.166;2022-09-09T09:21:28;19.30;99.90
4993;DHT22;2514;53.524;10.166;2022-09-09T09:24:07;19.30;99.90
4993;DHT22;2514;53.524;10.166;2022-09-09T09:26:43;18.70;99.90
4993;DHT22;2514;53.524;10.166;2022-09-09T09:29:12;18.30;99.90
4993;DHT22;2514;53.524;10.166;2022-09-09T09:31:43;18.70;99.90
4993;DHT22;2514;53.524;10.166;2022-09-09T09:34:13;18.90;99.90
4993;DHT22;2514;53.524;10.166;2022-09-09T09:36:43;19.30;99.90
4993;DHT22;2514;53.524;10.166;2022-09-09T09:39:24;19.50;99.90
4993;DHT22;2514;53.524;10.166;2022-09-09T09:41:52;20.00;99.90
4993;DHT22;2514;53.524;10.166;2022-09-09T09:44:25;20.00;99.90
4993;DHT22;2514;53.524;10.166;2022-09-09T09:47:05;19.80;99.90
4993;DHT22;2514;53.524;10.166;2022-09-09T09:49:33;20.30;99.90
4993;DHT22;2514;53.524;10.166;2022-09-09T09:52:01;21.10;99.90
4993;DHT22;2514;53.524;10.166;2022-09-09T09:54:32;21.10;99.90
4993;DHT22;2514;53.524;10.166;2022-09-09T09:57:09;20.70;99.90
4993;DHT22;2514;53.524;10.166;2022-09-09T09:59:37;20.90;99.90
4993;DHT22;2514;53.524;10.166;2022-09-09T10:02:17;20.60;99.90
4993;DHT22;2514;53.524;10.166;2022-09-09T10:04:46;20.10;99.90
4993;DHT22;2514;53.524;10.166;2022-09-09T10:07:18;19.80;99.90
4993;DHT22;2514;53.524;10.166;2022-09-09T10:09:50;20.00;99.90
4993;DHT22;2514;53.524;10.166;2022-09-09T10:12:29;20.90;99.90
4993;DHT22;2514;53.524;10.166;2022-09-09T10:15:11;21.50;99.90
4993;DHT22;2514;53.524;10.166;2022-09-09T10:17:56;22.10;99.90
4993;DHT22;2514;53.524;10.166;2022-09-09T10:20:35;23.60;99.90
4993;DHT22;2514;53.524;10.166;2022-09-09T10:23:19;23.70;99.90
4993;DHT22;2514;53.524;10.166;2022-09-09T10:26:12;23.60;99.90
4993;DHT22;2514;53.524;10.166;2022-09-09T10:29:10;22.20;99.90
4993;DHT22;2514;53.524;10.166;2022-09-09T10:31:52;22.80;99.90
4993;DHT22;2514;53.524;10.166;2022-09-09T10:34:41;24.60;99.90
4993;DHT22;2514;53.524;10.166;2022-09-09T10:37:22;25.90;99.90
4993;DHT22;2514;53.524;10.166;2022-09-09T10:40:04;24.90;99.90
4993;DHT22;2514;53.524;10.166;2022-09-09T10:42:43;24.50;86.00
4993;DHT22;2514;53.524;10.166;2022-09-09T10:45:18;23.90;1.30
4993;DHT22;2514;53.524;10.166;2022-09-09T10:47:57;23.40;1.00
4993;DHT22;2514;53.524;10.166;2022-09-09T10:50:49;22.40;1.00
4993;DHT22;2514;53.524;10.166;2022-09-09T10:53:28;22.10;1.00
4993;DHT22;2514;53.524;10.166;2022-09-09T10:56:06;21.80;1.00
4993;DHT22;2514;53.524;10.166;2022-09-09T10:58:42;22.10;1.00
4993;DHT22;2514;53.524;10.166;2022-09-09T11:01:17;23.30;1.00
4993;DHT22;2514;53.524;10.166;2022-09-09T11:03:52;22.90;1.00
4993;DHT22;2514;53.524;10.166;2022-09-09T11:06:29;22.50;1.00
4993;DHT22;2514;53.524;10.166;2022-09-09T11:09:02;22.10;1.00
4993;DHT22;2514;53.524;10.166;2022-09-09T11:11:34;21.50;1.00
4993;DHT22;2514;53.524;10.166;2022-09-09T11:14:11;21.40;1.00
4993;DHT22;2514;53.524;10.166;2022-09-09T11:16:46;21.60;1.00
4993;DHT22;2514;53.524;10.166;2022-09-09T11:19:19;22.30;1.00
4993;DHT22;2514;53.524;10.166;2022-09-09T11:21:50;21.90;1.00
4993;DHT22;2514;53.524;10.166;2022-09-09T11:24:22;21.70;1.00
4993;DHT22;2514;53.524;10.166;2022-09-09T11:26:57;21.70;1.00
4993;DHT22;2514;53.524;10.166;2022-09-09T11:29:47;21.50;1.00
4993;DHT22;2514;53.524;10.166;2022-09-09T11:33:19;21.40;1.00
4993;DHT22;2514;53.524;10.166;2022-09-09T11:36:35;21.40;1.00
4993;DHT22;2514;53.524;10.166;2022-09-09T11:42:27;22.00;99.90
4993;DHT22;2514;53.524;10.166;2022-09-09T11:44:56;21.10;99.90
4993;DHT22;2514;53.524;10.166;2022-09-09T11:47:24;21.00;99.90
4993;DHT22;2514;53.524;10.166;2022-09-09T11:50:06;20.50;1.00
4993;DHT22;2514;53.524;10.166;2022-09-09T11:52:39;20.30;1.00
4993;DHT22;2514;53.524;10.166;2022-09-09T11:55:10;20.40;1.00
4993;DHT22;2514;53.524;10.166;2022-09-09T11:57:38;20.40;1.00
4993;DHT22;2514;53.524;10.166;2022-09-09T12:00:30;20.80;1.00
4993;DHT22;2514;53.524;10.166;2022-09-09T12:03:00;21.70;1.00
4993;DHT22;2514;53.524;10.166;2022-09-09T12:05:36;22.10;1.00
4993;DHT22;2514;53.524;10.166;2022-09-09T12:08:09;21.70;99.90
4993;DHT22;2514;53.524;10.166;2022-09-09T12:10:39;21.10;99.90
4993;DHT22;2514;53.524;10.166;2022-09-09T12:13:16;20.60;1.00
4993;DHT22;2514;53.524;10.166;2022-09-09T12:15:50;20.30;1.00
4993;DHT22;2514;53.524;10.166;2022-09-09T12:18:23;19.90;1.00
4993;DHT22;2514;53.524;10.166;2022-09-09T12:20:57;19.50;1.00
4993;DHT22;2514;53.524;10.166;2022-09-09T12:23:35;19.30;99.90
4993;DHT22;2514;53.524;10.166;2022-09-09T12:26:25;19.40;99.90
4993;DHT22;2514;53.524;10.166;2022-09-09T12:29:01;19.70;99.90
4993;DHT22;2514;53.524;10.166;2022-09-09T12:31:42;19.90;99.90
4993;DHT22;2514;53.524;10.166;2022-09-09T12:34:16;20.10;99.90
4993;DHT22;2514;53.524;10.166;2022-09-09T12:36:48;20.20;99.90
4993;DHT22;2514;53.524;10.166;2022-09-09T12:39:24;20.30;99.90
4993;DHT22;2514;53.524;10.166;2022-09-09T12:41:55;20.30;99.90
4993;DHT22;2514;53.524;10.166;2022-09-09T12:44:23;20.00;99.90
4993;DHT22;2514;53.524;10.166;2022-09-09T12:46:53;20.00;99.90
4993;DHT22;2514;53.524;10.166;2022-09-09T12:49:28;20.10;99.90
4993;DHT22;2514;53.524;10.166;2022-09-09T12:52:02;20.00;99.90
4993;DHT22;2514;53.524;10.166;2022-09-09T12:54:31;20.20;99.90
4993;DHT22;2514;53.524;10.166;2022-09-09T12:56:58;20.30;99.90
4993;DHT22;2514;53.524;10.166;2022-09-09T12:59:26;20.00;99.90
4993;DHT22;2514;53.524;10.166;2022-09-09T13:02:11;19.90;99.90
4993;DHT22;2514;53.524;10.166;2022-09-09T13:04:43;20.30;99.90
4993;DHT22;2514;53.524;10.166;2022-09-09T13:07:13;20.40;99.90
4993;DHT22;2514;53.524;10.166;2022-09-09T13:09:42;20.20;99.90
4993;DHT22;2514;53.524;10.166;2022-09-09T13:12:18;20.00;99.90
4993;DHT22;2514;53.524;10.166;2022-09-09T13:14:48;19.50;99.90
4993;DHT22;2514;53.524;10.166;2022-09-09T13:17:21;19.20;99.90
4993;DHT22;2514;53.524;10.166;2022-09-09T13:19:50;19.00;99.90
4993;DHT22;2514;53.524;10.166;2022-09-09T13:22:21;18.80;99.90
4993;DHT22;2514;53.524;10.166;2022-09-09T13:25:03;18.80;99.90
4993;DHT22;2514;53.524;10.166;2022-09-09T13:27:33;18.80;99.90
4993;DHT22;2514;53.524;10.166;2022-09-09T13:30:20;18.70;99.90
4993;DHT22;2514;53.524;10.166;2022-09-09T13:33:02;18.80;99.90
4993;DHT22;2514;53.524;10.166;2022-09-09T13:35:30;18.80;99.90
4993;DHT22;2514;53.524;10.166;2022-09-09T13:38:09;18.80;99.90
4993;DHT22;2514;53.524;10.166;2022-09-09T13:40:37;18.80;99.90
4993;DHT22;2514;53.524;10.166;2022-09-09T13:43:05;18.60;99.90
4993;DHT22;2514;53.524;10.166;2022-09-09T13:45:33;18.40;99.90
4993;DHT22;2514;53.524;10.166;2022-09-09T13:48:10;18.10;99.90
4993;DHT22;2514;53.524;10.166;2022-09-09T13:50:39;17.80;99.90
4993;DHT22;2514;53.524;10.166;2022-09-09T13:53:07;17.60;99.90
4993;DHT22;2514;53.524;10.166;2022-09-09T13:55:36;17.40;99.90
4993;DHT22;2514;53.524;10.166;2022-09-09T13:58:04;17.30;99.90
4993;DHT22;2514;53.524;10.166;2022-09-09T14:00:34;17.20;99.90
4993;DHT22;2514;53.524;10.166;2022-09-09T14:03:01;17.10;99.90
4993;DHT22;2514;53.524;10.166;2022-09-09T14:05:31;17.00;99.90
4993;DHT22;2514;53.524;10.166;2022-09-09T14:08:00;17.00;99.90
4993;DHT22;2514;53.524;10.166;2022-09-09T14:10:27;16.90;99.90
4993;DHT22;2514;53.524;10.166;2022-09-09T14:12:54;16.90;99.90
4993;DHT22;2514;53.524;10.166;2022-09-09T14:15:21;16.80;99.90
4993;DHT22;2514;53.524;10.166;2022-09-09T14:17:48;16.80;99.90
4993;DHT22;2514;53.524;10.166;2022-09-09T14:20:15;16.70;99.90
4993;DHT22;2514;53.524;10.166;2022-09-09T14:22:46;16.50;99.90
4993;DHT22;2514;53.524;10.166;2022-09-09T14:25:13;16.40;99.90
4993;DHT22;2514;53.524;10.166;2022-09-09T14:27:41;16.30;99.90
4993;DHT22;2514;53.524;10.166;2022-09-09T14:30:10;16.20;99.90
4993;DHT22;2514;53.524;10.166;2022-09-09T14:32:37;16.20;99.90
4993;DHT22;2514;53.524;10.166;2022-09-09T14:35:04;16.10;99.90
4993;DHT22;2514;53.524;10.166;2022-09-09T14:37:32;16.10;99.90
4993;DHT22;2514;53.524;10.166;2022-09-09T14:40:01;16.10;99.90
4993;DHT22;2514;53.524;10.166;2022-09-09T14:42:29;16.00;99.90
4993;DHT22;2514;53.524;10.166;2022-09-09T14:44:56;16.00;99.90
4993;DHT22;2514;53.524;10.166;2022-09-09T14:47:23;16.00;99.90
4993;DHT22;2514;53.524;10.166;2022-09-09T14:49:51;16.00;99.90
4993;DHT22;2514;53.524;10.166;2022-09-09T14:52:18;16.00;99.90
4993;DHT22;2514;53.524;10.166;2022-09-09T14:54:45;16.00;99.90
4993;DHT22;2514;53.524;10.166;2022-09-09T14:57:14;15.90;99.90
4993;DHT22;2514;53.524;10.166;2022-09-09T14:59:41;15.80;99.90
4993;DHT22;2514;53.524;10.166;2022-09-09T15:02:08;15.80;99.90
4993;DHT22;2514;53.524;10.166;2022-09-09T15:04:39;15.80;99.90
4993;DHT22;2514;53.524;10.166;2022-09-09T15:07:06;15.80;99.90
4993;DHT22;2514;53.524;10.166;2022-09-09T15:09:33;15.90;99.90
4993;DHT22;2514;53.524;10.166;2022-09-09T15:12:00;16.00;99.90
4993;DHT22;2514;53.524;10.166;2022-09-09T15:14:29;16.00;99.90
4993;DHT22;2514;53.524;10.166;2022-09-09T15:16:57;16.00;99.90
4993;DHT22;2514;53.524;10.166;2022-09-09T15:19:24;16.00;99.90
4993;DHT22;2514;53.524;10.166;2022-09-09T15:21:51;15.90;99.90
4993;DHT22;2514;53.524;10.166;2022-09-09T15:24:18;15.90;99.90
4993;DHT22;2514;53.524;10.166;2022-09-09T15:26:46;15.80;99.90
4993;DHT22;2514;53.524;10.166;2022-09-09T15:29:13;15.80;99.90
4993;DHT22;2514;53.524;10.166;2022-09-09T15:31:41;15.80;99.90
4993;DHT22;2514;53.524;10.166;2022-09-09T15:34:08;15.80;99.90
4993;DHT22;2514;53.524;10.166;2022-09-09T15:36:37;15.90;99.90
4993;DHT22;2514;53.524;10.166;2022-09-09T15:39:05;16.00;99.90
4993;DHT22;2514;53.524;10.166;2022-09-09T15:41:35;16.00;99.90
4993;DHT22;2514;53.524;10.166;2022-09-09T15:44:02;16.20;99.90
4993;DHT22;2514;53.524;10.166;2022-09-09T15:46:31;16.20;99.90
4993;DHT22;2514;53.524;10.166;2022-09-09T15:49:04;16.20;99.90
4993;DHT22;2514;53.524;10.166;2022-09-09T15:51:34;16.30;99.90
4993;DHT22;2514;53.524;10.166;2022-09-09T15:54:03;16.50;99.90
4993;DHT22;2514;53.524;10.166;2022-09-09T15:56:31;16.70;99.90
4993;DHT22;2514;53.524;10.166;2022-09-09T15:58:59;16.80;99.90
4993;DHT22;2514;53.524;10.166;2022-09-09T16:01:27;16.90;99.90
4993;DHT22;2514;53.524;10.166;2022-09-09T16:03:54;17.10;99.90
4993;DHT22;2514;53.524;10.166;2022-09-09T16:06:24;17.30;99.90
4993;DHT22;2514;53.524;10.166;2022-09-09T16:08:53;17.50;99.90
4993;DHT22;2514;53.524;10.166;2022-09-09T16:11:23;17.50;99.90
4993;DHT22;2514;53.524;10.166;2022-09-09T16:13:52;17.40;99.90
4993;DHT22;2514;53.524;10.166;2022-09-09T16:16:21;17.50;99.90
4993;DHT22;2514;53.524;10.166;2022-09-09T16:18:51;17.40;99.90
4993;DHT22;2514;53.524;10.166;2022-09-09T16:21:21;17.50;99.90
4993;DHT22;2514;53.524;10.166;2022-09-09T16:23:51;17.50;99.90
4993;DHT22;2514;53.524;10.166;2022-09-09T16:26:19;17.60;99.90